sensor_id;sensor_type;location;lat;lon;timestamp;P1;durP1;ratioP1;P2;durP2;ratioP2
79124;SDS011;68527;39.470;-0.376;2023-06-14T00:01:45;3.00;;;1.50;;
79124;SDS011;68527;39.470;-0.376;2023-06-14T00:04:11;3.00;;;1.80;;
79124;SDS011;68527;39.470;-0.376;2023-06-14T00:06:37;3.00;;;1.80;;
79124;SDS011;68527;39.470;-0.376;2023-06-14T00:09:03;3.20;;;1.50;;
79124;SDS011;68527;39.470;-0.376;2023-06-14T00:11:30;3.40;;;1.40;;
79124;SDS011;68527;39.470;-0.376;2023-06-14T00:13:56;3.00;;;2.10;;
79124;SDS011;68527;39.470;-0.376;2023-06-14T00:16:22;2.20;;;1.50;;
79124;SDS011;68527;39.470;-0.376;2023-06-14T00:18:48;4.00;;;1.70;;
79124;SDS011;68527;39.470;-0.376;2023-06-14T00:21:14;2.70;;;1.60;;
79124;SDS011;68527;39.470;-0.376;2023-06-14T00:23:40;3.00;;;1.70;;
79124;SDS011;68527;39.470;-0.376;2023-06-14T00:26:05;2.90;;;1.70;;
79124;SDS011;68527;39.470;-0.376;2023-06-14T00:28:31;2.60;;;1.80;;
79124;SDS011;68527;39.470;-0.376;2023-06-14T00:30:57;2.90;;;1.50;;
79124;SDS011;68527;39.470;-0.376;2023-06-14T00:33:22;3.50;;;1.70;;
79124;SDS011;68527;39.470;-0.376;2023-06-14T00:35:48;2.90;;;1.80;;
79124;SDS011;68527;39.470;-0.376;2023-06-14T00:38:14;2.10;;;1.50;;
79124;SDS011;68527;39.470;-0.376;2023-06-14T00:40:40;2.50;;;1.50;;
79124;SDS011;68527;39.470;-0.376;2023-06-14T00:43:05;3.60;;;1.50;;
79124;SDS011;68527;39.470;-0.376;2023-06-14T00:45:31;2.40;;;1.60;;
79124;SDS011;68527;39.470;-0.376;2023-06-14T00:48:01;2.80;;;1.70;;
79124;SDS011;68527;39.470;-0.376;2023-06-14T00:50:27;2.40;;;1.80;;
79124;SDS011;68527;39.470;-0.376;2023-06-14T00:52:55;2.80;;;1.70;;
79124;SDS011;68527;39.470;-0.376;2023-06-14T00:55:21;3.30;;;1.60;;
79124;SDS011;68527;39.470;-0.376;2023-06-14T00:57:47;2.20;;;1.40;;
79124;SDS011;68527;39.470;-0.376;2023-06-14T01:00:14;2.30;;;1.70;;
79124;SDS011;68527;39.470;-0.376;2023-06-14T01:02:40;2.00;;;1.40;;
79124;SDS011;68527;39.470;-0.376;2023-06-14T01:05:06;2.60;;;1.60;;
79124;SDS011;68527;39.470;-0.376;2023-06-14T01:15:32;1.90;;;1.50;;
79124;SDS011;68527;39.470;-0.376;2023-06-14T01:17:58;3.10;;;1.60;;
79124;SDS011;68527;39.470;-0.376;2023-06-14T01:20:33;2.90;;;1.40;;
79124;SDS011;68527;39.470;-0.376;2023-06-14T01:23:02;2.20;;;1.30;;
79124;SDS011;68527;39.470;-0.376;2023-06-14T01:25:28;2.20;;;1.40;;
79124;SDS011;68527;39.470;-0.376;2023-06-14T01:28:01;2.70;;;1.60;;
79124;SDS011;68527;39.470;-0.376;2023-06-14T01:30:35;2.10;;;1.40;;
79124;SDS011;68527;39.470;-0.376;2023-06-14T01:33:02;2.60;;;1.40;;
79124;SDS011;68527;39.470;-0.376;2023-06-14T01:35:28;2.70;;;1.40;;
79124;SDS011;68527;39.470;-0.376;2023-06-14T01:37:54;2.10;;;1.30;;
79124;SDS011;68527;39.470;-0.376;2023-06-14T01:40:19;2.90;;;1.70;;
79124;SDS011;68527;39.470;-0.376;2023-06-14T01:42:46;2.50;;;1.60;;
79124;SDS011;68527;39.470;-0.376;2023-06-14T01:45:13;2.10;;;1.40;;
79124;SDS011;68527;39.470;-0.376;2023-06-14T01:47:39;2.70;;;1.10;;
79124;SDS011;68527;39.470;-0.376;2023-06-14T01:50:05;2.00;;;1.40;;
79124;SDS011;68527;39.470;-0.376;2023-06-14T01:52:31;3.40;;;1.70;;
79124;SDS011;68527;39.470;-0.376;2023-06-14T01:54:57;2.50;;;1.50;;
79124;SDS011;68527;39.470;-0.376;2023-06-14T01:57:23;2.90;;;1.60;;
79124;SDS011;68527;39.470;-0.376;2023-06-14T01:59:51;3.20;;;1.60;;
79124;SDS011;68527;39.470;-0.376;2023-06-14T02:02:16;2.40;;;1.50;;
79124;SDS011;68527;39.470;-0.376;2023-06-14T02:04:42;2.00;;;1.30;;
79124;SDS011;68527;39.470;-0.376;2023-06-14T02:07:07;3.30;;;1.50;;
79124;SDS011;68527;39.470;-0.376;2023-06-14T02:09:33;2.50;;;1.50;;
79124;SDS011;68527;39.470;-0.376;2023-06-14T02:12:00;2.50;;;1.40;;
79124;SDS011;68527;39.470;-0.376;2023-06-14T02:14:26;2.30;;;1.50;;
79124;SDS011;68527;39.470;-0.376;2023-06-14T02:16:52;3.10;;;1.50;;
79124;SDS011;68527;39.470;-0.376;2023-06-14T02:19:18;2.10;;;1.20;;
79124;SDS011;68527;39.470;-0.376;2023-06-14T02:21:45;2.00;;;1.50;;
79124;SDS011;68527;39.470;-0.376;2023-06-14T02:24:10;2.50;;;1.40;;
79124;SDS011;68527;39.470;-0.376;2023-06-14T02:26:36;2.70;;;1.80;;
79124;SDS011;68527;39.470;-0.376;2023-06-14T02:29:07;2.30;;;1.50;;
79124;SDS011;68527;39.470;-0.376;2023-06-14T02:31:36;2.30;;;1.60;;
79124;SDS011;68527;39.470;-0.376;2023-06-14T02:34:02;3.70;;;1.60;;
79124;SDS011;68527;39.470;-0.376;2023-06-14T02:36:27;2.60;;;1.70;;
79124;SDS011;68527;39.470;-0.376;2023-06-14T02:38:56;2.10;;;1.70;;
79124;SDS011;68527;39.470;-0.376;2023-06-14T02:41:25;1.90;;;1.30;;
79124;SDS011;68527;39.470;-0.376;2023-06-14T02:43:52;1.70;;;1.20;;
79124;SDS011;68527;39.470;-0.376;2023-06-14T02:46:17;2.40;;;1.50;;
79124;SDS011;68527;39.470;-0.376;2023-06-14T02:48:43;2.60;;;1.60;;
79124;SDS011;68527;39.470;-0.376;2023-06-14T02:51:09;1.80;;;1.30;;
79124;SDS011;68527;39.470;-0.376;2023-06-14T02:53:35;2.70;;;1.70;;
79124;SDS011;68527;39.470;-0.376;2023-06-14T02:56:01;2.80;;;1.40;;
79124;SDS011;68527;39.470;-0.376;2023-06-14T02:58:29;3.80;;;1.50;;
79124;SDS011;68527;39.470;-0.376;2023-06-14T03:00:55;1.90;;;1.30;;
79124;SDS011;68527;39.470;-0.376;2023-06-14T03:03:20;2.80;;;1.60;;
79124;SDS011;68527;39.470;-0.376;2023-06-14T03:05:47;1.70;;;1.10;;
79124;SDS011;68527;39.470;-0.376;2023-06-14T03:08:18;1.90;;;1.00;;
79124;SDS011;68527;39.470;-0.376;2023-06-14T03:10:47;2.00;;;1.40;;
79124;SDS011;68527;39.470;-0.376;2023-06-14T03:13:13;1.90;;;1.30;;
79124;SDS011;68527;39.470;-0.376;2023-06-14T03:15:39;4.60;;;1.30;;
79124;SDS011;68527;39.470;-0.376;2023-06-14T03:18:07;3.60;;;1.90;;
79124;SDS011;68527;39.470;-0.376;2023-06-14T03:20:37;2.20;;;1.30;;
79124;SDS011;68527;39.470;-0.376;2023-06-14T03:23:04;1.70;;;1.00;;
79124;SDS011;68527;39.470;-0.376;2023-06-14T03:25:30;2.00;;;1.50;;
79124;SDS011;68527;39.470;-0.376;2023-06-14T03:27:56;1.90;;;1.20;;
79124;SDS011;68527;39.470;-0.376;2023-06-14T03:30:22;2.30;;;1.40;;
79124;SDS011;68527;39.470;-0.376;2023-06-14T03:32:48;1.80;;;1.40;;
79124;SDS011;68527;39.470;-0.376;2023-06-14T03:35:14;2.20;;;1.40;;
79124;SDS011;68527;39.470;-0.376;2023-06-14T03:37:43;2.80;;;1.20;;
79124;SDS011;68527;39.470;-0.376;2023-06-14T03:40:09;3.40;;;1.50;;
79124;SDS011;68527;39.470;-0.376;2023-06-14T03:42:36;1.80;;;1.30;;
79124;SDS011;68527;39.470;-0.376;2023-06-14T03:45:02;2.60;;;1.60;;
79124;SDS011;68527;39.470;-0.376;2023-06-14T03:47:28;4.30;;;1.30;;
79124;SDS011;68527;39.470;-0.376;2023-06-14T03:49:53;2.90;;;1.20;;
79124;SDS011;68527;39.470;-0.376;2023-06-14T03:52:19;1.60;;;1.10;;
79124;SDS011;68527;39.470;-0.376;2023-06-14T03:54:47;2.30;;;1.50;;
79124;SDS011;68527;39.470;-0.376;2023-06-14T03:57:13;2.20;;;1.30;;
79124;SDS011;68527;39.470;-0.376;2023-06-14T03:59:38;2.30;;;1.50;;
79124;SDS011;68527;39.470;-0.376;2023-06-14T04:02:04;3.10;;;1.30;;
79124;SDS011;68527;39.470;-0.376;2023-06-14T04:04:30;1.70;;;1.00;;
79124;SDS011;68527;39.470;-0.376;2023-06-14T04:06:57;2.70;;;1.40;;
79124;SDS011;68527;39.470;-0.376;2023-06-14T04:09:24;1.80;;;1.40;;
79124;SDS011;68527;39.470;-0.376;2023-06-14T04:11:52;1.60;;;1.10;;
79124;SDS011;68527;39.470;-0.376;2023-06-14T04:14:21;1.70;;;1.40;;
79124;SDS011;68527;39.470;-0.376;2023-06-14T04:16:47;2.00;;;1.20;;
79124;SDS011;68527;39.470;-0.376;2023-06-14T04:19:14;1.80;;;1.20;;
79124;SDS011;68527;39.470;-0.376;2023-06-14T04:21:40;2.50;;;1.40;;
79124;SDS011;68527;39.470;-0.376;2023-06-14T04:24:06;3.10;;;1.20;;
79124;SDS011;68527;39.470;-0.376;2023-06-14T04:26:32;2.60;;;1.30;;
79124;SDS011;68527;39.470;-0.376;2023-06-14T04:28:58;2.20;;;1.70;;
79124;SDS011;68527;39.470;-0.376;2023-06-14T04:31:30;2.40;;;1.30;;
79124;SDS011;68527;39.470;-0.376;2023-06-14T04:34:02;1.80;;;1.40;;
79124;SDS011;68527;39.470;-0.376;2023-06-14T04:36:31;1.80;;;1.30;;
79124;SDS011;68527;39.470;-0.376;2023-06-14T04:39:00;2.50;;;1.20;;
79124;SDS011;68527;39.470;-0.376;2023-06-14T04:41:32;1.70;;;1.20;;
79124;SDS011;68527;39.470;-0.376;2023-06-14T04:43:58;1.90;;;1.20;;
79124;SDS011;68527;39.470;-0.376;2023-06-14T04:46:27;1.90;;;1.10;;
79124;SDS011;68527;39.470;-0.376;2023-06-14T04:48:53;2.60;;;1.40;;
79124;SDS011;68527;39.470;-0.376;2023-06-14T04:51:20;1.70;;;1.10;;
79124;SDS011;68527;39.470;-0.376;2023-06-14T04:53:57;1.90;;;1.40;;
79124;SDS011;68527;39.470;-0.376;2023-06-14T04:56:26;2.00;;;1.20;;
79124;SDS011;68527;39.470;-0.376;2023-06-14T04:58:52;1.50;;;1.20;;
79124;SDS011;68527;39.470;-0.376;2023-06-14T05:01:22;2.00;;;1.60;;
79124;SDS011;68527;39.470;-0.376;2023-06-14T05:03:48;1.70;;;1.10;;
79124;SDS011;68527;39.470;-0.376;2023-06-14T05:06:14;2.90;;;1.30;;
79124;SDS011;68527;39.470;-0.376;2023-06-14T05:08:43;2.10;;;1.30;;
79124;SDS011;68527;39.470;-0.376;2023-06-14T05:11:09;2.10;;;1.50;;
79124;SDS011;68527;39.470;-0.376;2023-06-14T05:13:35;1.60;;;1.30;;
79124;SDS011;68527;39.470;-0.376;2023-06-14T05:16:00;3.60;;;1.50;;
79124;SDS011;68527;39.470;-0.376;2023-06-14T05:18:26;2.60;;;1.30;;
79124;SDS011;68527;39.470;-0.376;2023-06-14T05:20:51;1.50;;;1.10;;
79124;SDS011;68527;39.470;-0.376;2023-06-14T05:23:17;2.50;;;1.30;;
79124;SDS011;68527;39.470;-0.376;2023-06-14T05:25:43;2.20;;;1.30;;
79124;SDS011;68527;39.470;-0.376;2023-06-14T05:28:09;3.10;;;1.70;;
79124;SDS011;68527;39.470;-0.376;2023-06-14T05:30:37;3.20;;;1.50;;
79124;SDS011;68527;39.470;-0.376;2023-06-14T05:33:03;2.20;;;1.30;;
79124;SDS011;68527;39.470;-0.376;2023-06-14T05:35:29;3.10;;;1.20;;
79124;SDS011;68527;39.470;-0.376;2023-06-14T05:37:55;3.50;;;1.50;;
79124;SDS011;68527;39.470;-0.376;2023-06-14T05:40:21;1.60;;;1.10;;
79124;SDS011;68527;39.470;-0.376;2023-06-14T05:42:47;2.10;;;1.30;;
79124;SDS011;68527;39.470;-0.376;2023-06-14T05:45:12;2.60;;;1.40;;
79124;SDS011;68527;39.470;-0.376;2023-06-14T05:47:40;2.30;;;1.30;;
79124;SDS011;68527;39.470;-0.376;2023-06-14T05:50:05;2.40;;;1.40;;
79124;SDS011;68527;39.470;-0.376;2023-06-14T05:52:31;2.30;;;1.50;;
79124;SDS011;68527;39.470;-0.376;2023-06-14T05:54:57;2.80;;;1.60;;
79124;SDS011;68527;39.470;-0.376;2023-06-14T05:57:22;2.60;;;1.40;;
79124;SDS011;68527;39.470;-0.376;2023-06-14T05:59:48;2.90;;;1.30;;
79124;SDS011;68527;39.470;-0.376;2023-06-14T06:02:13;3.30;;;1.60;;
79124;SDS011;68527;39.470;-0.376;2023-06-14T06:04:39;2.10;;;1.60;;
79124;SDS011;68527;39.470;-0.376;2023-06-14T06:07:05;2.10;;;1.10;;
79124;SDS011;68527;39.470;-0.376;2023-06-14T06:09:30;4.70;;;1.50;;
79124;SDS011;68527;39.470;-0.376;2023-06-14T06:11:56;4.00;;;1.30;;
79124;SDS011;68527;39.470;-0.376;2023-06-14T06:14:21;2.30;;;1.50;;
79124;SDS011;68527;39.470;-0.376;2023-06-14T06:16:47;3.50;;;1.50;;
79124;SDS011;68527;39.470;-0.376;2023-06-14T06:19:13;3.00;;;1.50;;
79124;SDS011;68527;39.470;-0.376;2023-06-14T06:21:38;7.20;;;2.00;;
79124;SDS011;68527;39.470;-0.376;2023-06-14T06:24:05;2.70;;;1.30;;
79124;SDS011;68527;39.470;-0.376;2023-06-14T06:26:31;6.10;;;1.70;;
79124;SDS011;68527;39.470;-0.376;2023-06-14T06:28:57;3.60;;;1.30;;
79124;SDS011;68527;39.470;-0.376;2023-06-14T06:31:23;2.80;;;1.30;;
79124;SDS011;68527;39.470;-0.376;2023-06-14T06:33:50;3.40;;;1.40;;
79124;SDS011;68527;39.470;-0.376;2023-06-14T06:36:16;3.30;;;1.30;;
79124;SDS011;68527;39.470;-0.376;2023-06-14T06:38:42;2.90;;;1.40;;
79124;SDS011;68527;39.470;-0.376;2023-06-14T06:41:07;3.80;;;1.70;;
79124;SDS011;68527;39.470;-0.376;2023-06-14T06:43:33;4.70;;;1.70;;
79124;SDS011;68527;39.470;-0.376;2023-06-14T06:46:01;3.70;;;1.30;;
79124;SDS011;68527;39.470;-0.376;2023-06-14T06:48:27;2.20;;;1.60;;
79124;SDS011;68527;39.470;-0.376;2023-06-14T06:50:54;2.20;;;1.10;;
79124;SDS011;68527;39.470;-0.376;2023-06-14T06:53:20;3.20;;;1.20;;
79124;SDS011;68527;39.470;-0.376;2023-06-14T06:55:45;2.30;;;1.30;;
79124;SDS011;68527;39.470;-0.376;2023-06-14T06:58:12;3.90;;;1.90;;
79124;SDS011;68527;39.470;-0.376;2023-06-14T07:00:38;4.30;;;2.30;;
79124;SDS011;68527;39.470;-0.376;2023-06-14T07:03:04;3.40;;;2.70;;
79124;SDS011;68527;39.470;-0.376;2023-06-14T07:05:30;3.20;;;2.50;;
79124;SDS011;68527;39.470;-0.376;2023-06-14T07:07:56;4.70;;;3.00;;
79124;SDS011;68527;39.470;-0.376;2023-06-14T07:10:21;4.90;;;3.20;;
79124;SDS011;68527;39.470;-0.376;2023-06-14T07:12:47;5.00;;;3.20;;
79124;SDS011;68527;39.470;-0.376;2023-06-14T07:15:13;3.80;;;2.80;;
79124;SDS011;68527;39.470;-0.376;2023-06-14T07:17:38;4.90;;;2.80;;
79124;SDS011;68527;39.470;-0.376;2023-06-14T07:20:06;4.40;;;3.10;;
79124;SDS011;68527;39.470;-0.376;2023-06-14T07:22:39;4.50;;;3.30;;
79124;SDS011;68527;39.470;-0.376;2023-06-14T07:25:08;4.40;;;3.20;;
79124;SDS011;68527;39.470;-0.376;2023-06-14T07:27:35;4.80;;;3.60;;
79124;SDS011;68527;39.470;-0.376;2023-06-14T07:30:00;4.80;;;3.20;;
79124;SDS011;68527;39.470;-0.376;2023-06-14T07:32:26;4.50;;;3.30;;
79124;SDS011;68527;39.470;-0.376;2023-06-14T07:34:52;4.90;;;3.60;;
79124;SDS011;68527;39.470;-0.376;2023-06-14T07:37:17;3.60;;;3.00;;
79124;SDS011;68527;39.470;-0.376;2023-06-14T07:39:43;3.80;;;3.30;;
79124;SDS011;68527;39.470;-0.376;2023-06-14T07:42:09;4.00;;;3.20;;
79124;SDS011;68527;39.470;-0.376;2023-06-14T07:44:35;3.60;;;3.00;;
79124;SDS011;68527;39.470;-0.376;2023-06-14T07:47:01;4.60;;;2.90;;
79124;SDS011;68527;39.470;-0.376;2023-06-14T07:49:27;4.60;;;2.90;;
79124;SDS011;68527;39.470;-0.376;2023-06-14T07:51:52;5.10;;;3.20;;
79124;SDS011;68527;39.470;-0.376;2023-06-14T07:54:19;3.70;;;2.70;;
79124;SDS011;68527;39.470;-0.376;2023-06-14T07:56:45;3.50;;;2.60;;
79124;SDS011;68527;39.470;-0.376;2023-06-14T07:59:11;4.70;;;2.80;;
79124;SDS011;68527;39.470;-0.376;2023-06-14T08:01:36;4.90;;;2.80;;
79124;SDS011;68527;39.470;-0.376;2023-06-14T08:04:02;4.70;;;2.60;;
79124;SDS011;68527;39.470;-0.376;2023-06-14T08:06:28;3.50;;;2.40;;
79124;SDS011;68527;39.470;-0.376;2023-06-14T08:08:54;4.70;;;2.60;;
79124;SDS011;68527;39.470;-0.376;2023-06-14T08:11:20;5.50;;;2.40;;
79124;SDS011;68527;39.470;-0.376;2023-06-14T08:13:46;4.60;;;2.10;;
79124;SDS011;68527;39.470;-0.376;2023-06-14T08:16:11;3.60;;;2.40;;
79124;SDS011;68527;39.470;-0.376;2023-06-14T08:18:37;4.30;;;2.40;;
79124;SDS011;68527;39.470;-0.376;2023-06-14T08:21:02;3.90;;;2.50;;
79124;SDS011;68527;39.470;-0.376;2023-06-14T08:23:29;4.20;;;2.80;;
79124;SDS011;68527;39.470;-0.376;2023-06-14T08:25:55;3.50;;;2.20;;
79124;SDS011;68527;39.470;-0.376;2023-06-14T08:28:21;4.00;;;2.40;;
79124;SDS011;68527;39.470;-0.376;2023-06-14T08:30:46;3.20;;;2.10;;
79124;SDS011;68527;39.470;-0.376;2023-06-14T08:33:12;2.80;;;2.00;;
79124;SDS011;68527;39.470;-0.376;2023-06-14T08:35:38;2.90;;;2.00;;
79124;SDS011;68527;39.470;-0.376;2023-06-14T08:38:04;2.90;;;1.70;;
79124;SDS011;68527;39.470;-0.376;2023-06-14T08:40:30;2.90;;;1.90;;
79124;SDS011;68527;39.470;-0.376;2023-06-14T08:42:56;2.70;;;2.00;;
79124;SDS011;68527;39.470;-0.376;2023-06-14T08:45:22;3.80;;;2.20;;
79124;SDS011;68527;39.470;-0.376;2023-06-14T08:47:50;3.30;;;2.20;;
79124;SDS011;68527;39.470;-0.376;2023-06-14T08:50:23;3.50;;;1.70;;
79124;SDS011;68527;39.470;-0.376;2023-06-14T08:52:55;3.10;;;1.70;;
79124;SDS011;68527;39.470;-0.376;2023-06-14T08:55:25;3.30;;;1.70;;
79124;SDS011;68527;39.470;-0.376;2023-06-14T08:57:54;3.20;;;1.60;;
79124;SDS011;68527;39.470;-0.376;2023-06-14T09:00:39;3.30;;;2.00;;
79124;SDS011;68527;39.470;-0.376;2023-06-14T09:03:06;2.80;;;1.70;;
79124;SDS011;68527;39.470;-0.376;2023-06-14T09:05:40;2.10;;;1.70;;
79124;SDS011;68527;39.470;-0.376;2023-06-14T09:08:14;2.60;;;2.00;;
79124;SDS011;68527;39.470;-0.376;2023-06-14T09:10:44;2.50;;;1.80;;
79124;SDS011;68527;39.470;-0.376;2023-06-14T09:13:10;4.00;;;2.10;;
79124;SDS011;68527;39.470;-0.376;2023-06-14T09:15:39;2.50;;;1.70;;
79124;SDS011;68527;39.470;-0.376;2023-06-14T09:18:04;3.40;;;1.90;;
79124;SDS011;68527;39.470;-0.376;2023-06-14T09:20:35;3.70;;;1.70;;
79124;SDS011;68527;39.470;-0.376;2023-06-14T09:23:02;2.90;;;1.80;;
79124;SDS011;68527;39.470;-0.376;2023-06-14T09:25:29;2.50;;;2.00;;
79124;SDS011;68527;39.470;-0.376;2023-06-14T09:27:55;4.00;;;1.80;;
79124;SDS011;68527;39.470;-0.376;2023-06-14T09:30:24;2.60;;;1.60;;
79124;SDS011;68527;39.470;-0.376;2023-06-14T09:32:49;2.90;;;1.60;;
79124;SDS011;68527;39.470;-0.376;2023-06-14T09:35:17;3.00;;;1.60;;
79124;SDS011;68527;39.470;-0.376;2023-06-14T09:37:43;2.50;;;1.80;;
79124;SDS011;68527;39.470;-0.376;2023-06-14T09:40:10;2.20;;;1.70;;
79124;SDS011;68527;39.470;-0.376;2023-06-14T09:42:36;2.70;;;1.40;;
79124;SDS011;68527;39.470;-0.376;2023-06-14T09:45:02;3.00;;;2.00;;
79124;SDS011;68527;39.470;-0.376;2023-06-14T09:47:29;2.70;;;1.80;;
79124;SDS011;68527;39.470;-0.376;2023-06-14T09:49:55;2.80;;;1.80;;
79124;SDS011;68527;39.470;-0.376;2023-06-14T09:52:21;2.80;;;1.90;;
79124;SDS011;68527;39.470;-0.376;2023-06-14T09:54:47;2.50;;;1.70;;
79124;SDS011;68527;39.470;-0.376;2023-06-14T09:57:17;2.10;;;1.60;;
79124;SDS011;68527;39.470;-0.376;2023-06-14T09:59:46;2.10;;;1.50;;
79124;SDS011;68527;39.470;-0.376;2023-06-14T10:04:50;2.40;;;1.90;;
79124;SDS011;68527;39.470;-0.376;2023-06-14T10:07:23;2.80;;;2.20;;
79124;SDS011;68527;39.470;-0.376;2023-06-14T10:09:52;2.40;;;1.70;;
79124;SDS011;68527;39.470;-0.376;2023-06-14T10:12:18;3.30;;;1.80;;
79124;SDS011;68527;39.470;-0.376;2023-06-14T10:14:47;3.20;;;2.00;;
79124;SDS011;68527;39.470;-0.376;2023-06-14T10:17:26;3.50;;;1.70;;
79124;SDS011;68527;39.470;-0.376;2023-06-14T10:19:57;2.80;;;1.90;;
79124;SDS011;68527;39.470;-0.376;2023-06-14T10:22:35;3.60;;;1.90;;
79124;SDS011;68527;39.470;-0.376;2023-06-14T10:25:30;3.10;;;1.80;;
79124;SDS011;68527;39.470;-0.376;2023-06-14T10:30:37;2.60;;;2.10;;
79124;SDS011;68527;39.470;-0.376;2023-06-14T10:33:03;2.70;;;2.10;;
79124;SDS011;68527;39.470;-0.376;2023-06-14T10:35:32;3.30;;;1.60;;
79124;SDS011;68527;39.470;-0.376;2023-06-14T10:38:07;2.60;;;1.50;;
79124;SDS011;68527;39.470;-0.376;2023-06-14T10:40:34;2.90;;;1.80;;
79124;SDS011;68527;39.470;-0.376;2023-06-14T10:43:00;3.70;;;2.00;;
79124;SDS011;68527;39.470;-0.376;2023-06-14T10:45:25;3.30;;;2.30;;
79124;SDS011;68527;39.470;-0.376;2023-06-14T10:47:51;4.10;;;2.00;;
79124;SDS011;68527;39.470;-0.376;2023-06-14T10:50:22;4.30;;;2.50;;
79124;SDS011;68527;39.470;-0.376;2023-06-14T10:52:53;3.20;;;1.80;;
79124;SDS011;68527;39.470;-0.376;2023-06-14T10:55:19;3.70;;;2.40;;
79124;SDS011;68527;39.470;-0.376;2023-06-14T11:00:20;3.40;;;2.30;;
79124;SDS011;68527;39.470;-0.376;2023-06-14T11:05:48;3.40;;;2.20;;
79124;SDS011;68527;39.470;-0.376;2023-06-14T11:10:51;3.50;;;2.10;;
79124;SDS011;68527;39.470;-0.376;2023-06-14T11:13:18;2.40;;;1.90;;
79124;SDS011;68527;39.470;-0.376;2023-06-14T11:15:44;3.10;;;2.00;;
79124;SDS011;68527;39.470;-0.376;2023-06-14T11:18:12;3.60;;;2.30;;
79124;SDS011;68527;39.470;-0.376;2023-06-14T11:20:38;4.20;;;2.50;;
79124;SDS011;68527;39.470;-0.376;2023-06-14T11:23:05;3.00;;;2.20;;
79124;SDS011;68527;39.470;-0.376;2023-06-14T11:25:30;2.90;;;2.10;;
79124;SDS011;68527;39.470;-0.376;2023-06-14T11:27:56;3.20;;;2.30;;
79124;SDS011;68527;39.470;-0.376;2023-06-14T11:30:23;3.10;;;2.20;;
79124;SDS011;68527;39.470;-0.376;2023-06-14T11:32:49;2.80;;;2.20;;
79124;SDS011;68527;39.470;-0.376;2023-06-14T11:35:17;3.10;;;2.30;;
79124;SDS011;68527;39.470;-0.376;2023-06-14T11:37:43;4.80;;;2.70;;
79124;SDS011;68527;39.470;-0.376;2023-06-14T11:40:12;3.20;;;2.20;;
79124;SDS011;68527;39.470;-0.376;2023-06-14T11:42:40;3.80;;;2.30;;
79124;SDS011;68527;39.470;-0.376;2023-06-14T11:45:07;3.00;;;2.20;;
79124;SDS011;68527;39.470;-0.376;2023-06-14T11:47:36;4.10;;;2.10;;
79124;SDS011;68527;39.470;-0.376;2023-06-14T11:50:04;3.10;;;2.20;;
79124;SDS011;68527;39.470;-0.376;2023-06-14T11:52:34;3.20;;;2.00;;
79124;SDS011;68527;39.470;-0.376;2023-06-14T11:55:01;3.60;;;2.20;;
79124;SDS011;68527;39.470;-0.376;2023-06-14T11:57:30;2.40;;;1.90;;
79124;SDS011;68527;39.470;-0.376;2023-06-14T12:00:04;4.00;;;2.40;;
79124;SDS011;68527;39.470;-0.376;2023-06-14T12:02:37;3.50;;;2.40;;
79124;SDS011;68527;39.470;-0.376;2023-06-14T12:05:05;3.80;;;2.30;;
79124;SDS011;68527;39.470;-0.376;2023-06-14T12:07:38;3.90;;;2.70;;
79124;SDS011;68527;39.470;-0.376;2023-06-14T12:10:07;3.10;;;2.50;;
79124;SDS011;68527;39.470;-0.376;2023-06-14T12:12:39;3.20;;;2.40;;
79124;SDS011;68527;39.470;-0.376;2023-06-14T12:15:06;4.20;;;2.90;;
79124;SDS011;68527;39.470;-0.376;2023-06-14T12:17:36;3.30;;;2.30;;
79124;SDS011;68527;39.470;-0.376;2023-06-14T12:20:08;3.90;;;2.30;;
79124;SDS011;68527;39.470;-0.376;2023-06-14T12:22:39;4.90;;;2.20;;
79124;SDS011;68527;39.470;-0.376;2023-06-14T12:28:04;4.70;;;2.80;;
79124;SDS011;68527;39.470;-0.376;2023-06-14T12:30:34;4.00;;;2.40;;
79124;SDS011;68527;39.470;-0.376;2023-06-14T12:33:01;3.90;;;2.50;;
79124;SDS011;68527;39.470;-0.376;2023-06-14T12:35:30;3.60;;;2.20;;
79124;SDS011;68527;39.470;-0.376;2023-06-14T12:37:56;5.60;;;3.20;;
79124;SDS011;68527;39.470;-0.376;2023-06-14T12:40:22;5.70;;;2.70;;
79124;SDS011;68527;39.470;-0.376;2023-06-14T12:42:48;4.30;;;2.80;;
79124;SDS011;68527;39.470;-0.376;2023-06-14T12:45:14;5.50;;;2.80;;
79124;SDS011;68527;39.470;-0.376;2023-06-14T12:47:40;3.50;;;2.40;;
79124;SDS011;68527;39.470;-0.376;2023-06-14T12:50:05;4.50;;;3.00;;
79124;SDS011;68527;39.470;-0.376;2023-06-14T12:52:32;5.60;;;2.70;;
79124;SDS011;68527;39.470;-0.376;2023-06-14T12:55:02;4.00;;;2.50;;
79124;SDS011;68527;39.470;-0.376;2023-06-14T12:57:31;6.20;;;3.20;;
79124;SDS011;68527;39.470;-0.376;2023-06-14T12:59:57;4.70;;;2.50;;
79124;SDS011;68527;39.470;-0.376;2023-06-14T13:02:24;4.20;;;2.70;;
79124;SDS011;68527;39.470;-0.376;2023-06-14T13:04:50;4.00;;;2.50;;
79124;SDS011;68527;39.470;-0.376;2023-06-14T13:07:28;4.90;;;2.30;;
79124;SDS011;68527;39.470;-0.376;2023-06-14T13:09:54;3.90;;;2.70;;
79124;SDS011;68527;39.470;-0.376;2023-06-14T13:12:20;4.90;;;2.80;;
79124;SDS011;68527;39.470;-0.376;2023-06-14T13:14:46;5.00;;;3.30;;
79124;SDS011;68527;39.470;-0.376;2023-06-14T13:17:11;4.50;;;2.90;;
79124;SDS011;68527;39.470;-0.376;2023-06-14T13:19:37;3.60;;;2.40;;
79124;SDS011;68527;39.470;-0.376;2023-06-14T13:22:03;6.00;;;3.30;;
79124;SDS011;68527;39.470;-0.376;2023-06-14T13:24:29;5.10;;;2.90;;
79124;SDS011;68527;39.470;-0.376;2023-06-14T13:26:55;6.00;;;2.90;;
79124;SDS011;68527;39.470;-0.376;2023-06-14T13:29:21;5.00;;;3.00;;
79124;SDS011;68527;39.470;-0.376;2023-06-14T13:31:46;3.90;;;3.20;;
79124;SDS011;68527;39.470;-0.376;2023-06-14T13:34:12;4.20;;;2.60;;
79124;SDS011;68527;39.470;-0.376;2023-06-14T13:36:38;4.50;;;2.50;;
79124;SDS011;68527;39.470;-0.376;2023-06-14T13:39:03;3.90;;;2.70;;
79124;SDS011;68527;39.470;-0.376;2023-06-14T13:41:29;4.90;;;3.00;;
79124;SDS011;68527;39.470;-0.376;2023-06-14T13:43:57;4.60;;;2.70;;
79124;SDS011;68527;39.470;-0.376;2023-06-14T13:46:23;5.70;;;3.00;;
79124;SDS011;68527;39.470;-0.376;2023-06-14T13:48:49;4.00;;;2.30;;
79124;SDS011;68527;39.470;-0.376;2023-06-14T13:51:15;4.30;;;2.90;;
79124;SDS011;68527;39.470;-0.376;2023-06-14T13:53:42;4.40;;;2.30;;
79124;SDS011;68527;39.470;-0.376;2023-06-14T13:56:08;3.50;;;2.30;;
79124;SDS011;68527;39.470;-0.376;2023-06-14T13:58:35;3.10;;;2.30;;
79124;SDS011;68527;39.470;-0.376;2023-06-14T14:01:02;3.40;;;2.30;;
79124;SDS011;68527;39.470;-0.376;2023-06-14T14:03:27;3.60;;;2.30;;
79124;SDS011;68527;39.470;-0.376;2023-06-14T14:05:53;4.00;;;2.10;;
79124;SDS011;68527;39.470;-0.376;2023-06-14T14:08:19;3.00;;;2.30;;
79124;SDS011;68527;39.470;-0.376;2023-06-14T14:10:44;3.30;;;2.10;;
79124;SDS011;68527;39.470;-0.376;2023-06-14T14:13:10;2.70;;;2.00;;
79124;SDS011;68527;39.470;-0.376;2023-06-14T14:15:37;3.50;;;1.90;;
79124;SDS011;68527;39.470;-0.376;2023-06-14T14:18:03;3.40;;;2.20;;
79124;SDS011;68527;39.470;-0.376;2023-06-14T14:20:31;4.50;;;2.10;;
79124;SDS011;68527;39.470;-0.376;2023-06-14T14:22:57;3.30;;;2.20;;
79124;SDS011;68527;39.470;-0.376;2023-06-14T14:25:23;3.00;;;2.10;;
79124;SDS011;68527;39.470;-0.376;2023-06-14T14:27:48;3.60;;;2.10;;
79124;SDS011;68527;39.470;-0.376;2023-06-14T14:30:14;4.20;;;2.20;;
79124;SDS011;68527;39.470;-0.376;2023-06-14T14:32:41;3.00;;;2.10;;
79124;SDS011;68527;39.470;-0.376;2023-06-14T14:35:08;3.80;;;2.20;;
79124;SDS011;68527;39.470;-0.376;2023-06-14T14:37:34;6.60;;;1.90;;
79124;SDS011;68527;39.470;-0.376;2023-06-14T14:40:00;4.90;;;2.00;;
79124;SDS011;68527;39.470;-0.376;2023-06-14T14:42:25;4.60;;;2.00;;
79124;SDS011;68527;39.470;-0.376;2023-06-14T14:44:52;3.60;;;2.10;;
79124;SDS011;68527;39.470;-0.376;2023-06-14T14:47:17;2.60;;;1.90;;
79124;SDS011;68527;39.470;-0.376;2023-06-14T14:49:43;2.80;;;1.60;;
79124;SDS011;68527;39.470;-0.376;2023-06-14T14:52:08;5.50;;;2.50;;
79124;SDS011;68527;39.470;-0.376;2023-06-14T14:54:34;3.10;;;1.80;;
79124;SDS011;68527;39.470;-0.376;2023-06-14T14:57:01;3.40;;;1.90;;